Norwegian Jade — C6WK7 — position and weather

sailwx.info

Track history (hours):
 
Tides and Currents Weather Stations Pressure Air Temp Water Temp Dewpoint Dewpoint Depression Visibility Wind Speed Wind Dir Waves Ship Positions

Norwegian Jade

Last reported at 2020-Jul-11 03:30 UTC. Time now 2020-Jul-11 06:52 UTC.
Position N 40°50' E 014°16'.

Length 294 m; draft 8.4 m.

Type: Passenger vessel. MMSI: 308416000.

Date/timePositionNaut miles runAvg speedWind from/ knotsBaromVisibWave heightAir tempDewpointWater temp
2020-Jul-11 03:30N 40°50' E 014°16'0 0.0
2020-Jul-11 03:00N 40°50' E 014°16'0 0.0
2020-Jul-11 02:30N 40°50' E 014°16'0 0.0
2020-Jul-11 02:00N 40°50' E 014°16'0 0.0
2020-Jul-11 01:00N 40°50' E 014°16'0 0.0
2020-Jul-10 22:30N 40°50' E 014°16'0 0.0
2020-Jul-10 19:27N 40°50' E 014°16'0 0.0
2020-Jul-10 19:00N 40°50' E 014°16'17 5.5
2020-Jul-10 16:00N 40°37' E 014°03'1110.8
2020-Jul-10 15:00N 40°29' E 013°53'8 5.2
2020-Jul-10 13:30N 40°27' E 013°43'14 9.4
2020-Jul-10 12:00N 40°27' E 013°25'1010.1
2020-Jul-10 11:01N 40°17' E 013°24'2711.0
2020-Jul-10 08:30N 40°30' E 013°56'2512.4
2020-Jul-10 06:30N 40°49' E 014°17'2 3.1
2020-Jul-10 05:58N 40°50' E 014°16'0 0.0
2020-Jul-10 05:28N 40°50' E 014°16'0 0.0
2020-Jul-10 02:28N 40°50' E 014°16'0 0.0
2020-Jul-10 01:58N 40°50' E 014°16'0 0.0
2020-Jul-10 01:28N 40°50' E 014°16'0 0.0
2020-Jul-10 00:58N 40°50' E 014°16'0 0.0
2020-Jul-10 00:28N 40°50' E 014°16'0 0.0
2020-Jul-09 21:58N 40°50' E 014°16'0 0.0
2020-Jul-09 19:58N 40°50' E 014°16'0 0.0
2020-Jul-09 15:58N 40°50' E 014°16'0 0.0
2020-Jul-09 14:58N 40°50' E 014°16'0 0.0
2020-Jul-09 13:52N 40°50' E 014°16'0 0.0
2020-Jul-09 12:28N 40°50' E 014°16'0 0.0
2020-Jul-09 11:58N 40°50' E 014°16'0 0.0
2020-Jul-09 11:25N 40°50' E 014°16'0 0.0
2020-Jul-09 10:25N 40°50' E 014°16'0 0.0
2020-Jul-09 08:58N 40°50' E 014°16'0 0.0
2020-Jul-09 08:28N 40°50' E 014°16'0 0.0
2020-Jul-09 06:58N 40°50' E 014°16'0 0.0
2020-Jul-09 05:58N 40°50' E 014°16'0 0.0
2020-Jul-09 02:55N 40°50' E 014°16'0 0.0
2020-Jul-08 21:58N 40°50' E 014°16'0 0.0
2020-Jul-08 20:28N 40°50' E 014°16'0 0.0
2020-Jul-08 17:28N 40°50' E 014°16'0 0.0
2020-Jul-08 16:58N 40°50' E 014°16'0 0.0
2020-Jul-08 15:22N 40°50' E 014°16'0 0.0
2020-Jul-08 13:58N 40°50' E 014°16'0 0.0
2020-Jul-08 13:28N 40°50' E 014°16'0 0.0
2020-Jul-08 12:58N 40°50' E 014°16'0 0.0
2020-Jul-08 12:28N 40°50' E 014°16'0 0.0
2020-Jul-08 10:58N 40°50' E 014°16'0 0.0
2020-Jul-08 05:25N 40°50' E 014°16'0 0.0
2020-Jul-08 02:58N 40°50' E 014°16'0 0.0
2020-Jul-07 22:58N 40°50' E 014°16'0 0.0
2020-Jul-07 21:58N 40°50' E 014°16'0 0.0
2020-Jul-07 20:28N 40°50' E 014°16'0 0.0
2020-Jul-07 18:28N 40°50' E 014°16'0 0.0
2020-Jul-07 15:58N 40°50' E 014°16'0 0.0
2020-Jul-07 14:58N 40°50' E 014°16'0 0.0
2020-Jul-07 13:58N 40°50' E 014°16'0 0.0
2020-Jul-07 12:58N 40°50' E 014°16'0 0.0
2020-Jul-07 11:28N 40°50' E 014°16'0 0.0
2020-Jul-07 10:58N 40°50' E 014°16'0 0.0
2020-Jul-07 07:28N 40°50' E 014°16'0 0.0
2020-Jul-07 05:28N 40°50' E 014°16'0 0.0
2020-Jul-07 04:58N 40°50' E 014°16'0 0.0
2020-Jul-07 03:28N 40°50' E 014°16'0 0.0
2020-Jul-07 02:58N 40°50' E 014°16'0 0.0
2020-Jul-06 23:58N 40°50' E 014°16'0 0.0
2020-Jul-06 22:28N 40°50' E 014°16'0 0.0
2020-Jul-06 18:58N 40°50' E 014°16'0 0.0
2020-Jul-06 18:28N 40°50' E 014°16'0 0.0
2020-Jul-06 17:28N 40°50' E 014°16'0 0.0
2020-Jul-06 16:58N 40°50' E 014°16'0 0.0
2020-Jul-06 11:58N 40°50' E 014°16'0 0.0
2020-Jul-06 10:58N 40°50' E 014°16'0 0.0
2020-Jul-06 09:58N 40°50' E 014°16'0 0.0
2020-Jul-06 09:28N 40°50' E 014°16'0 0.0
2020-Jul-06 08:25N 40°50' E 014°16'0 0.0
2020-Jul-06 07:58N 40°50' E 014°16'0 0.0
2020-Jul-06 04:28N 40°50' E 014°16'0 0.0
2020-Jul-06 02:58N 40°50' E 014°16'0 0.0
2020-Jul-06 02:28N 40°50' E 014°16'0 0.0
2020-Jul-06 01:28N 40°50' E 014°16'0 0.0
2020-Jul-05 21:58N 40°50' E 014°16'0 0.0
2020-Jul-05 19:58N 40°50' E 014°16'0 0.0
2020-Jul-05 15:58N 40°50' E 014°16'0 0.0
2020-Jul-05 15:28N 40°50' E 014°16'0 0.0
2020-Jul-05 12:28N 40°50' E 014°16'0 0.0
2020-Jul-05 10:19N 40°50' E 014°16'0 0.0
2020-Jul-03 10:28N 40°50' E 014°16'0 0.0
2020-Jul-03 09:58N 40°50' E 014°16'0 0.0
2020-Jul-03 09:28N 40°50' E 014°16'0 0.0
2020-Jul-03 08:58N 40°50' E 014°16'0 0.0
2020-Jul-03 08:28N 40°50' E 014°16'0 0.0
2020-Jul-03 06:28N 40°50' E 014°16'0 0.0
2020-Jul-03 03:58N 40°50' E 014°16'0 0.0
2020-Jul-03 02:58N 40°50' E 014°16'0 0.0
2020-Jul-03 02:28N 40°50' E 014°16'0 0.0
2020-Jul-02 20:28N 40°50' E 014°16'0 0.0
2020-Jul-02 19:28N 40°50' E 014°16'0 0.0
2020-Jul-02 18:28N 40°50' E 014°16'0 0.0
2020-Jul-02 15:58N 40°50' E 014°16'0 0.0
2020-Jul-02 14:28N 40°50' E 014°16'0 0.0
2020-Jul-02 11:28N 40°50' E 014°16'0 0.0
2020-Jul-02 10:58N 40°50' E 014°16'0 0.0
2020-Jul-02 10:28N 40°50' E 014°16'0 0.0
2020-Jul-02 09:28N 40°50' E 014°16'0 0.0
2020-Jul-02 08:58N 40°50' E 014°16'0 0.0
2020-Jul-02 06:28N 40°50' E 014°16'0 0.0
2020-Jul-02 03:58N 40°50' E 014°16'0 0.0
2020-Jul-02 03:28N 40°50' E 014°16'0 0.0
2020-Jul-02 02:28N 40°50' E 014°16'0 0.0
2020-Jul-02 01:28N 40°50' E 014°16'0 0.0
2020-Jul-01 23:28N 40°50' E 014°16'0 0.0
2020-Jul-01 18:22N 40°50' E 014°16'0 0.0
2020-Jul-01 15:58N 40°50' E 014°16'0 0.0
2020-Jul-01 13:28N 40°50' E 014°16'0 0.0
2020-Jul-01 05:25N 40°50' E 014°16'0 0.0
2020-Jul-01 03:55N 40°50' E 014°16'  
Track history (hours):
 
Tides and Currents Weather Stations Pressure Air Temp Water Temp Dewpoint Dewpoint Depression Visibility Wind Speed Wind Dir Waves Ship Positions

Norwegian Jade

Last reported at 2020-Jul-11 03:30 UTC. Time now 2020-Jul-11 06:52 UTC.
Position N 40°50' E 014°16'.

Length 294 m; draft 8.4 m.

Type: Passenger vessel. MMSI: 308416000.

Date/timePositionNaut miles runAvg speedWind from/ knotsBaromVisibWave heightAir tempDewpointWater temp
2020-Jul-11 03:30N 40°50' E 014°16'0 0.0
2020-Jul-11 03:00N 40°50' E 014°16'0 0.0
2020-Jul-11 02:30N 40°50' E 014°16'0 0.0
2020-Jul-11 02:00N 40°50' E 014°16'0 0.0
2020-Jul-11 01:00N 40°50' E 014°16'0 0.0
2020-Jul-10 22:30N 40°50' E 014°16'0 0.0
2020-Jul-10 19:27N 40°50' E 014°16'0 0.0
2020-Jul-10 19:00N 40°50' E 014°16'17 5.5
2020-Jul-10 16:00N 40°37' E 014°03'1110.8
2020-Jul-10 15:00N 40°29' E 013°53'8 5.2
2020-Jul-10 13:30N 40°27' E 013°43'14 9.4
2020-Jul-10 12:00N 40°27' E 013°25'1010.1
2020-Jul-10 11:01N 40°17' E 013°24'2711.0
2020-Jul-10 08:30N 40°30' E 013°56'2512.4
2020-Jul-10 06:30N 40°49' E 014°17'2 3.1
2020-Jul-10 05:58N 40°50' E 014°16'0 0.0
2020-Jul-10 05:28N 40°50' E 014°16'0 0.0
2020-Jul-10 02:28N 40°50' E 014°16'0 0.0
2020-Jul-10 01:58N 40°50' E 014°16'0 0.0
2020-Jul-10 01:28N 40°50' E 014°16'0 0.0
2020-Jul-10 00:58N 40°50' E 014°16'0 0.0
2020-Jul-10 00:28N 40°50' E 014°16'0 0.0
2020-Jul-09 21:58N 40°50' E 014°16'0 0.0
2020-Jul-09 19:58N 40°50' E 014°16'0 0.0
2020-Jul-09 15:58N 40°50' E 014°16'0 0.0
2020-Jul-09 14:58N 40°50' E 014°16'0 0.0
2020-Jul-09 13:52N 40°50' E 014°16'0 0.0
2020-Jul-09 12:28N 40°50' E 014°16'0 0.0
2020-Jul-09 11:58N 40°50' E 014°16'0 0.0
2020-Jul-09 11:25N 40°50' E 014°16'0 0.0
2020-Jul-09 10:25N 40°50' E 014°16'0 0.0
2020-Jul-09 08:58N 40°50' E 014°16'0 0.0
2020-Jul-09 08:28N 40°50' E 014°16'0 0.0
2020-Jul-09 06:58N 40°50' E 014°16'0 0.0
2020-Jul-09 05:58N 40°50' E 014°16'0 0.0
2020-Jul-09 02:55N 40°50' E 014°16'0 0.0
2020-Jul-08 21:58N 40°50' E 014°16'0 0.0
2020-Jul-08 20:28N 40°50' E 014°16'0 0.0
2020-Jul-08 17:28N 40°50' E 014°16'0 0.0
2020-Jul-08 16:58N 40°50' E 014°16'0 0.0
2020-Jul-08 15:22N 40°50' E 014°16'0 0.0
2020-Jul-08 13:58N 40°50' E 014°16'0 0.0
2020-Jul-08 13:28N 40°50' E 014°16'0 0.0
2020-Jul-08 12:58N 40°50' E 014°16'0 0.0
2020-Jul-08 12:28N 40°50' E 014°16'0 0.0
2020-Jul-08 10:58N 40°50' E 014°16'0 0.0
2020-Jul-08 05:25N 40°50' E 014°16'0 0.0
2020-Jul-08 02:58N 40°50' E 014°16'0 0.0
2020-Jul-07 22:58N 40°50' E 014°16'0 0.0
2020-Jul-07 21:58N 40°50' E 014°16'0 0.0
2020-Jul-07 20:28N 40°50' E 014°16'0 0.0
2020-Jul-07 18:28N 40°50' E 014°16'0 0.0
2020-Jul-07 15:58N 40°50' E 014°16'0 0.0
2020-Jul-07 14:58N 40°50' E 014°16'0 0.0
2020-Jul-07 13:58N 40°50' E 014°16'0 0.0
2020-Jul-07 12:58N 40°50' E 014°16'0 0.0
2020-Jul-07 11:28N 40°50' E 014°16'0 0.0
2020-Jul-07 10:58N 40°50' E 014°16'0 0.0
2020-Jul-07 07:28N 40°50' E 014°16'0 0.0
2020-Jul-07 05:28N 40°50' E 014°16'0 0.0
2020-Jul-07 04:58N 40°50' E 014°16'0 0.0
2020-Jul-07 03:28N 40°50' E 014°16'0 0.0
2020-Jul-07 02:58N 40°50' E 014°16'0 0.0
2020-Jul-06 23:58N 40°50' E 014°16'0 0.0
2020-Jul-06 22:28N 40°50' E 014°16'0 0.0
2020-Jul-06 18:58N 40°50' E 014°16'0 0.0
2020-Jul-06 18:28N 40°50' E 014°16'0 0.0
2020-Jul-06 17:28N 40°50' E 014°16'0 0.0
2020-Jul-06 16:58N 40°50' E 014°16'0 0.0
2020-Jul-06 11:58N 40°50' E 014°16'0 0.0
2020-Jul-06 10:58N 40°50' E 014°16'0 0.0
2020-Jul-06 09:58N 40°50' E 014°16'0 0.0
2020-Jul-06 09:28N 40°50' E 014°16'0 0.0
2020-Jul-06 08:25N 40°50' E 014°16'0 0.0
2020-Jul-06 07:58N 40°50' E 014°16'0 0.0
2020-Jul-06 04:28N 40°50' E 014°16'0 0.0
2020-Jul-06 02:58N 40°50' E 014°16'0 0.0
2020-Jul-06 02:28N 40°50' E 014°16'0 0.0
2020-Jul-06 01:28N 40°50' E 014°16'0 0.0
2020-Jul-05 21:58N 40°50' E 014°16'0 0.0
2020-Jul-05 19:58N 40°50' E 014°16'0 0.0
2020-Jul-05 15:58N 40°50' E 014°16'0 0.0
2020-Jul-05 15:28N 40°50' E 014°16'0 0.0
2020-Jul-05 12:28N 40°50' E 014°16'0 0.0
2020-Jul-05 10:19N 40°50' E 014°16'0 0.0
2020-Jul-03 10:28N 40°50' E 014°16'0 0.0
2020-Jul-03 09:58N 40°50' E 014°16'0 0.0
2020-Jul-03 09:28N 40°50' E 014°16'0 0.0
2020-Jul-03 08:58N 40°50' E 014°16'0 0.0
2020-Jul-03 08:28N 40°50' E 014°16'0 0.0
2020-Jul-03 06:28N 40°50' E 014°16'0 0.0
2020-Jul-03 03:58N 40°50' E 014°16'0 0.0
2020-Jul-03 02:58N 40°50' E 014°16'0 0.0
2020-Jul-03 02:28N 40°50' E 014°16'0 0.0
2020-Jul-02 20:28N 40°50' E 014°16'0 0.0
2020-Jul-02 19:28N 40°50' E 014°16'0 0.0
2020-Jul-02 18:28N 40°50' E 014°16'0 0.0
2020-Jul-02 15:58N 40°50' E 014°16'0 0.0
2020-Jul-02 14:28N 40°50' E 014°16'0 0.0
2020-Jul-02 11:28N 40°50' E 014°16'0 0.0
2020-Jul-02 10:58N 40°50' E 014°16'0 0.0
2020-Jul-02 10:28N 40°50' E 014°16'0 0.0
2020-Jul-02 09:28N 40°50' E 014°16'0 0.0
2020-Jul-02 08:58N 40°50' E 014°16'0 0.0
2020-Jul-02 06:28N 40°50' E 014°16'0 0.0
2020-Jul-02 03:58N 40°50' E 014°16'0 0.0
2020-Jul-02 03:28N 40°50' E 014°16'0 0.0
2020-Jul-02 02:28N 40°50' E 014°16'0 0.0
2020-Jul-02 01:28N 40°50' E 014°16'0 0.0
2020-Jul-01 23:28N 40°50' E 014°16'0 0.0
2020-Jul-01 18:22N 40°50' E 014°16'0 0.0
2020-Jul-01 15:58N 40°50' E 014°16'0 0.0
2020-Jul-01 13:28N 40°50' E 014°16'0 0.0
2020-Jul-01 05:25N 40°50' E 014°16'0 0.0
2020-Jul-01 03:55N 40°50' E 014°16'  

Dump ship's entire track history